Terminal Aerodrome Forecast
Issued by NWS Wakefield, VA

Home | Current Version | Previous Version | Text Only | Print | Product List | Glossary On
Versions: 1 2 3 4 5 6 7 8 9 10 11 12 13 14 15 16 17 18 19 20 21 22 23 24 25 26 27 28
035
FTUS41 KAKQ 220540
TAFRIC
TAF
KRIC 220540Z 2206/2306 04004KT 2SM -RA BR OVC003
     FM220800 03004KT 4SM BR OVC005
     FM221500 03003KT 5SM -SHRA OVC006
     FM222000 03005KT 4SM -RA BR OVC005=

USA.gov is the U.S. government's official web portal to all federal, state and local government web resources and services.